Terminal Aerodrome Forecast
Issued by NWS Charleston, WV

Current Version | Previous Version | Graphics & Text | Print | Product List | Glossary On
Versions: 1 2 3 4 5 6 7 8 9 10 11 12 13 14 15 16 17 18 19 20 21 22 23
024
FTUS41 KRLX 281606 AAA
TAFCRW
TAF AMD
KCRW 281606Z 2816/2912 24007KT P6SM BKN030
     FM282000 25010KT P6SM VCTS BKN030CB
     FM290100 VRB03KT 6SM BR SCT030
     FM290800 00000KT 2SM BR BKN010=

USA.gov is the U.S. government's official web portal to all federal, state and local government web resources and services.